createdAt,value
2018-01-16T00:01:11.243Z,0.93
2018-01-16T00:03:39.776Z,1.20
2018-01-16T00:06:08.108Z,0.80
2018-01-16T00:08:36.410Z,0.90
2018-01-16T00:11:05.371Z,0.90
2018-01-16T00:13:34.232Z,1.53
2018-01-16T00:16:02.662Z,1.00
2018-01-16T00:18:30.978Z,1.13
2018-01-16T00:20:59.322Z,0.90
2018-01-16T00:23:27.627Z,0.83
2018-01-16T00:25:56.040Z,1.00
2018-01-16T00:28:24.391Z,1.13
2018-01-16T00:30:53.428Z,1.23
2018-01-16T00:33:21.735Z,1.10
2018-01-16T00:35:50.576Z,1.03
2018-01-16T00:38:18.879Z,1.00
2018-01-16T00:40:47.180Z,1.20
2018-01-16T00:43:16.013Z,1.20
2018-01-16T00:45:44.346Z,1.00
2018-01-16T00:48:12.845Z,1.13
2018-01-16T00:50:41.246Z,1.27
2018-01-16T00:53:09.515Z,1.20
2018-01-16T00:55:37.812Z,1.00
2018-01-16T00:58:06.659Z,1.30
2018-01-16T01:00:34.975Z,1.50
2018-01-16T01:03:03.283Z,1.00
2018-01-16T01:05:31.608Z,1.30
2018-01-16T01:07:59.907Z,3.17
2018-01-16T01:10:29.015Z,1.00
2018-01-16T01:12:57.331Z,1.20
2018-01-16T01:15:25.663Z,1.27
2018-01-16T01:17:54.007Z,1.37
2018-01-16T01:20:23.052Z,1.13
2018-01-16T01:22:51.905Z,1.00
2018-01-16T01:25:20.229Z,0.80
2018-01-16T01:27:49.248Z,1.27
2018-01-16T01:30:18.376Z,0.90
2018-01-16T01:32:46.898Z,1.10
2018-01-16T01:35:15.571Z,1.50
2018-01-16T01:37:43.917Z,1.20
2018-01-16T01:40:13.008Z,1.00
2018-01-16T01:42:42.216Z,0.90
2018-01-16T01:45:10.520Z,1.20
2018-01-16T01:47:38.880Z,0.87
2018-01-16T01:50:07.196Z,0.90
2018-01-16T01:52:35.500Z,1.37
2018-01-16T01:55:04.091Z,1.10
2018-01-16T01:57:32.728Z,0.90
2018-01-16T02:00:01.020Z,0.90
2018-01-16T02:02:29.376Z,0.80
2018-01-16T02:04:57.911Z,0.83
2018-01-16T02:07:26.319Z,0.90
2018-01-16T02:09:54.709Z,1.13
2018-01-16T02:12:23.278Z,0.70
2018-01-16T02:14:51.581Z,1.20
2018-01-16T02:17:20.549Z,0.93
2018-01-16T02:19:49.099Z,1.10
2018-01-16T02:22:18.495Z,1.00
2018-01-16T02:24:47.073Z,0.93
2018-01-16T02:27:15.367Z,0.90
2018-01-16T02:29:43.671Z,0.80
2018-01-16T02:32:12.231Z,0.80
2018-01-16T02:34:40.729Z,0.80
2018-01-16T02:37:09.383Z,0.90
2018-01-16T02:39:38.084Z,0.70
2018-01-16T02:42:06.380Z,0.80
2018-01-16T02:44:34.686Z,0.70
2018-01-16T02:47:03.196Z,0.60
2018-01-16T02:49:31.628Z,0.80
2018-01-16T02:51:59.933Z,1.03
2018-01-16T02:54:29.612Z,0.70
2018-01-16T02:56:57.911Z,0.70
2018-01-16T02:59:26.216Z,0.70
2018-01-16T03:01:54.934Z,0.80
2018-01-16T03:04:23.807Z,1.27
2018-01-16T03:06:52.324Z,0.93
2018-01-16T03:09:20.805Z,0.83
2018-01-16T03:11:49.756Z,0.80
2018-01-16T03:14:18.085Z,0.70
2018-01-16T03:16:47.173Z,0.80
2018-01-16T03:19:15.638Z,0.67
2018-01-16T03:21:43.951Z,1.20
2018-01-16T03:24:12.288Z,0.80
2018-01-16T03:26:40.744Z,0.70
2018-01-16T03:29:09.044Z,0.80
2018-01-16T03:31:38.323Z,0.70
2018-01-16T03:34:06.695Z,0.60
2018-01-16T03:36:34.996Z,0.83
2018-01-16T03:39:04.350Z,0.70
2018-01-16T03:41:32.647Z,0.70
2018-01-16T03:44:00.983Z,0.90
2018-01-16T03:46:30.103Z,0.90
2018-01-16T03:48:58.451Z,0.70
2018-01-16T03:51:26.750Z,0.70
2018-01-16T03:53:55.380Z,0.70
2018-01-16T03:56:23.879Z,0.80
2018-01-16T03:58:52.175Z,1.00
2018-01-16T04:01:20.528Z,0.70
2018-01-16T04:03:48.824Z,0.63
2018-01-16T04:06:17.116Z,0.70
2018-01-16T04:08:46.478Z,0.83
2018-01-16T04:11:14.775Z,0.80
2018-01-16T04:13:43.132Z,0.70
2018-01-16T04:16:11.464Z,0.90
2018-01-16T04:18:40.012Z,1.70
2018-01-16T04:21:08.386Z,1.30
2018-01-16T04:23:36.727Z,0.97
2018-01-16T04:26:05.685Z,0.70
2018-01-16T04:28:33.989Z,0.90
2018-01-16T04:31:02.332Z,0.90
2018-01-16T04:33:31.355Z,0.60
2018-01-16T04:35:59.672Z,0.70
2018-01-16T04:38:28.020Z,0.70
2018-01-16T04:40:56.315Z,1.77
2018-01-16T04:43:25.226Z,0.60
2018-01-16T04:45:53.572Z,0.80
2018-01-16T04:48:22.023Z,0.70
2018-01-16T04:50:50.836Z,0.70
2018-01-16T04:53:19.850Z,0.90
2018-01-16T04:55:48.155Z,0.70
2018-01-16T04:58:16.450Z,0.80
2018-01-16T05:00:45.588Z,0.90
2018-01-16T05:03:13.884Z,0.70
2018-01-16T05:05:42.412Z,0.70
2018-01-16T05:08:10.755Z,0.70
2018-01-16T05:10:39.053Z,0.80
2018-01-16T05:13:08.115Z,0.70
2018-01-16T05:15:37.480Z,0.70
2018-01-16T05:18:05.787Z,0.80
2018-01-16T05:20:34.806Z,0.73
2018-01-16T05:23:03.219Z,0.93
2018-01-16T05:25:31.579Z,0.70
2018-01-16T05:28:00.652Z,0.90
2018-01-16T05:30:28.991Z,1.00
2018-01-16T05:32:57.296Z,0.67
2018-01-16T05:35:25.596Z,1.07
2018-01-16T05:37:53.936Z,1.10
2018-01-16T05:40:22.241Z,0.83
2018-01-16T05:42:50.887Z,0.90
2018-01-16T05:45:19.499Z,0.70
2018-01-16T05:47:48.211Z,0.90
2018-01-16T05:50:18.033Z,1.00
2018-01-16T05:52:47.442Z,1.40
2018-01-16T05:55:15.740Z,1.00
2018-01-16T05:57:44.037Z,0.80
2018-01-16T06:00:12.384Z,1.00
2018-01-16T06:02:41.016Z,0.80
2018-01-16T06:05:09.368Z,1.13
2018-01-16T06:07:37.667Z,0.80
2018-01-16T06:10:06.096Z,1.00
2018-01-16T06:12:35.159Z,0.80
2018-01-16T06:15:03.464Z,0.87
2018-01-16T06:17:32.279Z,1.00
2018-01-16T06:20:00.575Z,0.80
2018-01-16T06:22:28.872Z,1.17
2018-01-16T06:24:57.831Z,1.00
2018-01-16T06:27:26.123Z,0.90
2018-01-16T06:29:54.439Z,0.87
2018-01-16T06:32:22.793Z,1.13
2018-01-16T06:34:51.704Z,0.70
2018-01-16T06:37:20.427Z,1.03
2018-01-16T06:39:48.819Z,0.90
2018-01-16T06:42:17.118Z,0.83
2018-01-16T06:44:45.416Z,0.90
2018-01-16T06:47:13.797Z,1.07
2018-01-16T06:49:42.098Z,0.90
2018-01-16T06:52:10.408Z,1.00
2018-01-16T06:54:39.207Z,1.10
2018-01-16T06:57:07.508Z,1.00
2018-01-16T06:59:36.219Z,0.83
2018-01-16T07:02:04.579Z,0.90
2018-01-16T07:04:32.880Z,0.77
2018-01-16T07:07:01.947Z,0.80
2018-01-16T07:09:30.564Z,1.07
2018-01-16T07:11:58.862Z,0.70
2018-01-16T07:14:27.164Z,0.90
2018-01-16T07:16:55.511Z,1.10
2018-01-16T07:19:23.808Z,1.20
2018-01-16T07:21:52.106Z,1.00
2018-01-16T07:24:20.695Z,1.00
2018-01-16T07:26:48.996Z,0.80
2018-01-16T07:29:17.302Z,1.70
2018-01-16T07:31:45.663Z,1.10
2018-01-16T07:34:13.958Z,1.00
2018-01-16T07:36:42.254Z,0.80
2018-01-16T07:39:10.595Z,0.93
2018-01-16T07:41:39.660Z,0.80
2018-01-16T07:44:07.959Z,0.80
2018-01-16T07:46:36.313Z,1.10
2018-01-16T07:49:04.728Z,0.97
2018-01-16T07:51:33.860Z,0.87
2018-01-16T07:54:02.208Z,1.37
2018-01-16T07:56:30.511Z,0.60
2018-01-16T07:58:58.812Z,0.73
2018-01-16T08:01:27.163Z,0.77
2018-01-16T08:03:55.463Z,0.80
2018-01-16T08:06:23.763Z,0.90
2018-01-16T08:08:52.195Z,0.80
2018-01-16T08:11:20.515Z,0.80
2018-01-16T08:13:48.835Z,1.43
2018-01-16T08:16:17.188Z,1.00
2018-01-16T08:18:45.479Z,1.10
2018-01-16T08:21:14.555Z,0.90
2018-01-16T08:23:42.892Z,0.77
2018-01-16T08:26:11.188Z,0.90
2018-01-16T08:28:39.483Z,0.70
2018-01-16T08:31:07.808Z,1.10
2018-01-16T08:33:36.107Z,1.10
2018-01-16T08:36:04.619Z,0.60
2018-01-16T08:38:32.920Z,0.90
2018-01-16T08:41:01.987Z,0.70
2018-01-16T08:43:30.475Z,1.20
2018-01-16T08:45:58.788Z,1.00
2018-01-16T08:48:27.083Z,0.90
2018-01-16T08:50:55.414Z,0.70
2018-01-16T08:53:23.720Z,1.00
2018-01-16T08:55:52.020Z,1.00
2018-01-16T08:58:20.359Z,0.80
2018-01-16T09:00:49.424Z,1.00
2018-01-16T09:03:17.723Z,0.80
2018-01-16T09:05:46.075Z,0.77
2018-01-16T09:08:14.388Z,0.93
2018-01-16T09:10:42.700Z,1.20
2018-01-16T09:13:11.340Z,0.90
2018-01-16T09:15:39.644Z,1.10
2018-01-16T09:18:07.948Z,0.90
2018-01-16T09:20:36.315Z,0.80
2018-01-16T09:23:04.651Z,1.10
2018-01-16T09:25:32.947Z,1.30
2018-01-16T09:28:02.412Z,2.20
2018-01-16T09:30:32.519Z,1.00
2018-01-16T09:33:02.247Z,1.10
2018-01-16T09:35:30.750Z,1.33
2018-01-16T09:37:59.101Z,0.90
2018-01-16T09:40:30.424Z,1.60
2018-01-16T09:42:59.092Z,0.70
2018-01-16T09:45:34.480Z,0.93
2018-01-16T09:48:03.960Z,1.00
2018-01-16T09:50:32.272Z,0.87
2018-01-16T09:53:00.571Z,0.90
2018-01-16T09:55:28.920Z,0.83
2018-01-16T09:57:57.228Z,0.60
2018-01-16T10:00:25.797Z,0.70
2018-01-16T10:02:54.397Z,1.00
2018-01-16T10:05:23.455Z,1.10
2018-01-16T10:07:52.271Z,0.90
2018-01-16T10:10:20.632Z,1.20
2018-01-16T10:12:49.860Z,1.70
2018-01-16T10:15:18.180Z,1.27
2018-01-16T10:17:46.828Z,1.33
2018-01-16T10:20:15.127Z,1.50
2018-01-16T10:22:43.476Z,1.40
2018-01-16T10:25:12.746Z,1.40
2018-01-16T10:27:41.039Z,0.80
2018-01-16T10:30:10.104Z,1.30
2018-01-16T10:32:38.611Z,1.33
2018-01-16T10:35:06.936Z,1.50
2018-01-16T10:37:35.236Z,1.67
2018-01-16T10:40:03.864Z,2.43
2018-01-16T10:42:32.935Z,2.70
2018-01-16T10:45:01.232Z,2.40
2018-01-16T10:47:30.360Z,1.60
2018-01-16T10:49:59.683Z,1.30
2018-01-16T10:52:27.986Z,1.40
2018-01-16T10:54:56.336Z,1.43
2018-01-16T10:57:24.640Z,1.20
2018-01-16T10:59:52.931Z,1.00
2018-01-16T11:02:20.566Z,1.27
2018-01-16T11:04:48.874Z,1.20
2018-01-16T11:07:18.143Z,1.00
2018-01-16T11:09:46.739Z,1.27
2018-01-16T11:12:15.027Z,1.23
2018-01-16T11:14:43.329Z,0.83
2018-01-16T11:17:12.057Z,1.23
2018-01-16T11:19:40.464Z,2.00
2018-01-16T11:22:09.091Z,1.40
2018-01-16T11:24:37.428Z,1.47
2018-01-16T11:27:05.787Z,1.37
2018-01-16T11:29:35.017Z,1.70
2018-01-16T11:32:03.328Z,1.40
2018-01-16T11:34:31.643Z,1.60
2018-01-16T11:36:59.988Z,1.20
2018-01-16T11:39:28.360Z,1.70
2018-01-16T11:41:56.672Z,1.23
2018-01-16T11:44:25.063Z,1.20
2018-01-16T11:46:53.352Z,2.23
2018-01-16T11:49:22.048Z,2.20
2018-01-16T11:51:50.415Z,2.10
2018-01-16T11:54:18.848Z,1.93
2018-01-16T11:56:47.944Z,1.30
2018-01-16T11:59:16.332Z,1.53
2018-01-16T12:01:44.662Z,1.90
2018-01-16T12:04:13.251Z,1.10
2018-01-16T12:06:42.499Z,1.33
2018-01-16T12:09:10.915Z,1.63
2018-01-16T12:11:39.816Z,0.87
2018-01-16T12:14:08.579Z,1.00
2018-01-16T12:16:36.881Z,1.07
2018-01-16T12:19:06.348Z,1.33
2018-01-16T12:21:35.443Z,1.20
2018-01-16T12:24:04.207Z,1.10
2018-01-16T12:26:32.571Z,0.80
2018-01-16T12:29:00.915Z,0.90
2018-01-16T12:31:29.246Z,0.93
2018-01-16T12:33:57.561Z,1.20
2018-01-16T12:36:26.150Z,0.83
2018-01-16T12:38:54.514Z,0.87
2018-01-16T12:41:22.815Z,0.93
2018-01-16T12:43:51.107Z,0.63
2018-01-16T12:46:19.696Z,1.00
2018-01-16T12:48:48.007Z,0.70
2018-01-16T12:51:16.615Z,0.70
2018-01-16T12:53:45.064Z,0.80
2018-01-16T12:56:13.363Z,0.70
2018-01-16T12:58:41.728Z,0.70
2018-01-16T13:01:10.023Z,0.80
2018-01-16T13:03:38.343Z,0.80
2018-01-16T13:06:06.952Z,0.60
2018-01-16T13:08:35.251Z,0.70
2018-01-16T13:11:03.556Z,1.00
2018-01-16T13:13:31.899Z,1.50
2018-01-16T13:16:00.196Z,1.03
2018-01-16T13:18:28.496Z,1.13
2018-01-16T13:20:56.839Z,3.40
2018-01-16T13:23:25.151Z,2.10
2018-01-16T13:25:53.464Z,1.67
2018-01-16T13:28:22.051Z,2.17
2018-01-16T13:30:50.343Z,1.47
2018-01-16T13:33:18.656Z,1.13
2018-01-16T13:35:47.163Z,1.30
2018-01-16T13:38:15.465Z,1.37
2018-01-16T13:40:44.007Z,2.03
2018-01-16T13:43:12.304Z,1.10
2018-01-16T13:45:40.619Z,1.00
2018-01-16T13:48:08.959Z,1.10
2018-01-16T13:50:37.263Z,1.47
2018-01-16T13:53:05.571Z,0.90
2018-01-16T13:55:33.920Z,1.40
2018-01-16T13:58:02.215Z,1.10
2018-01-16T14:00:30.513Z,1.20
2018-01-16T14:02:58.864Z,1.00
2018-01-16T14:05:27.168Z,0.87
2018-01-16T14:07:55.463Z,1.00
2018-01-16T14:10:24.563Z,0.97
2018-01-16T14:12:53.633Z,0.93
2018-01-16T14:15:21.931Z,1.13
2018-01-16T14:17:51.295Z,1.20
2018-01-16T14:20:19.591Z,1.10
2018-01-16T14:22:50.340Z,0.70
2018-01-16T14:25:18.936Z,1.53
2018-01-16T14:27:47.240Z,0.90
2018-01-16T14:30:15.535Z,0.63
2018-01-16T14:32:43.882Z,1.53
2018-01-16T14:35:12.183Z,0.90
2018-01-16T14:37:40.475Z,1.30
2018-01-16T14:40:09.072Z,0.80
2018-01-16T14:42:37.375Z,1.20
2018-01-16T14:45:05.679Z,0.90
2018-01-16T14:47:34.179Z,1.13
2018-01-16T14:50:02.500Z,0.90
2018-01-16T14:52:30.799Z,0.80
2018-01-16T14:54:59.919Z,0.90
2018-01-16T14:57:28.279Z,0.70
2018-01-16T14:59:56.584Z,2.07
2018-01-16T15:02:24.882Z,0.90
2018-01-16T15:04:53.463Z,0.97
2018-01-16T15:07:21.755Z,0.73
2018-01-16T15:09:50.064Z,0.93
2018-01-16T15:12:18.427Z,0.90
2018-01-16T15:14:46.734Z,0.80
2018-01-16T15:17:15.039Z,1.00
2018-01-16T15:19:43.667Z,1.00
2018-01-16T15:22:11.964Z,1.00
2018-01-16T15:24:41.027Z,0.90
2018-01-16T15:27:09.612Z,0.70
2018-01-16T15:29:37.915Z,1.97
2018-01-16T15:32:06.217Z,1.00
2018-01-16T15:34:34.576Z,1.00
2018-01-16T15:37:04.160Z,2.07
2018-01-16T15:39:32.486Z,1.53
2018-01-16T15:42:00.860Z,0.80
2018-01-16T15:44:29.465Z,1.27
2018-01-16T15:46:57.876Z,0.97
2018-01-16T15:49:27.016Z,1.27
2018-01-16T15:51:55.350Z,1.43
2018-01-16T15:54:24.359Z,1.30
2018-01-16T15:56:53.043Z,1.23
2018-01-16T15:59:21.359Z,1.90
2018-01-16T16:01:49.999Z,1.20
2018-01-16T16:04:18.299Z,1.53
2018-01-16T16:06:46.606Z,1.50
2018-01-16T16:09:14.956Z,2.30
2018-01-16T16:11:43.266Z,2.20
2018-01-16T16:14:11.559Z,1.83
2018-01-16T16:16:40.691Z,1.80
2018-01-16T16:19:09.139Z,1.53
2018-01-16T16:21:37.440Z,1.57
2018-01-16T16:24:06.324Z,1.80
2018-01-16T16:26:35.240Z,1.50
2018-01-16T16:29:04.207Z,2.47
2018-01-16T16:31:33.014Z,2.73
2018-01-16T16:34:01.327Z,2.97
2018-01-16T16:36:29.676Z,2.40
2018-01-16T16:38:58.740Z,2.10
2018-01-16T16:41:27.036Z,2.70
2018-01-16T16:43:56.627Z,1.80
2018-01-16T16:46:25.539Z,2.27
2018-01-16T16:48:53.863Z,1.93
2018-01-16T16:51:22.831Z,1.50
2018-01-16T16:53:51.127Z,1.17
2018-01-16T16:56:20.391Z,1.67
2018-01-16T16:58:49.395Z,1.50
2018-01-16T17:01:17.700Z,1.77
2018-01-16T17:03:46.013Z,1.40
2018-01-16T17:06:15.043Z,1.60
2018-01-16T17:08:45.816Z,1.10
2018-01-16T17:11:14.676Z,1.50
2018-01-16T17:13:43.323Z,1.40
2018-01-16T17:16:11.620Z,1.20
2018-01-16T17:18:40.226Z,1.40
2018-01-16T17:21:08.523Z,1.10
2018-01-16T17:23:36.823Z,1.67
2018-01-16T17:26:05.514Z,1.77
2018-01-16T17:28:33.847Z,1.90
2018-01-16T17:31:02.167Z,1.00
2018-01-16T17:33:30.523Z,1.40
2018-01-16T17:35:58.832Z,1.67
2018-01-16T17:38:27.131Z,1.43
2018-01-16T17:40:55.854Z,1.30
2018-01-16T17:43:24.368Z,1.50
2018-01-16T17:45:52.668Z,3.53
2018-01-16T17:48:21.091Z,1.53
2018-01-16T17:50:49.396Z,1.47
2018-01-16T17:53:17.700Z,3.10
2018-01-16T17:55:46.052Z,1.20
2018-01-16T17:58:14.394Z,2.17
2018-01-16T18:00:42.687Z,0.80
2018-01-16T18:03:11.313Z,1.20
2018-01-16T18:05:39.611Z,1.33
2018-01-16T18:08:07.977Z,1.20
2018-01-16T18:10:37.123Z,0.80
2018-01-16T18:13:05.455Z,1.00
2018-01-16T18:15:33.759Z,0.80
2018-01-16T18:18:02.103Z,0.97
2018-01-16T18:20:30.395Z,1.03
2018-01-16T18:22:59.459Z,0.97
2018-01-16T18:25:27.816Z,1.20
2018-01-16T18:27:56.422Z,1.33
2018-01-16T18:30:24.743Z,0.60
2018-01-16T18:32:53.060Z,1.10
2018-01-16T18:35:21.399Z,2.00
2018-01-16T18:37:49.703Z,0.73
2018-01-16T18:40:17.999Z,1.30
2018-01-16T18:42:46.340Z,1.43
2018-01-16T18:45:14.635Z,1.83
2018-01-16T18:47:42.932Z,1.00
2018-01-16T18:50:11.856Z,1.00
2018-01-16T18:52:40.156Z,1.07
2018-01-16T18:55:08.453Z,1.53
2018-01-16T18:57:36.954Z,1.23
2018-01-16T19:00:05.256Z,1.90
2018-01-16T19:02:34.684Z,0.83
2018-01-16T19:05:02.937Z,0.87
2018-01-16T19:07:31.255Z,1.10
2018-01-16T19:09:59.766Z,0.77
2018-01-16T19:12:28.791Z,0.90
2018-01-16T19:14:57.091Z,0.90
2018-01-16T19:17:25.507Z,2.10
2018-01-16T19:19:53.997Z,1.70
2018-01-16T19:22:22.303Z,1.30
2018-01-16T19:24:50.647Z,2.10
2018-01-16T19:27:18.951Z,1.30
2018-01-16T19:29:47.248Z,1.10
2018-01-16T19:32:16.287Z,1.50
2018-01-16T19:34:44.593Z,1.77
2018-01-16T19:37:14.610Z,0.90
2018-01-16T19:39:42.951Z,0.87
2018-01-16T19:42:11.259Z,1.13
2018-01-16T19:44:40.468Z,1.10
2018-01-16T19:47:08.898Z,1.07
2018-01-16T19:49:37.204Z,1.40
2018-01-16T19:52:06.639Z,1.90
2018-01-16T19:54:36.786Z,3.63
2018-01-16T19:57:05.092Z,4.53
2018-01-16T19:59:33.463Z,4.73
2018-01-16T20:02:01.818Z,3.47
2018-01-16T20:04:30.162Z,2.57
2018-01-16T20:06:58.993Z,3.50
2018-01-16T20:09:27.310Z,2.60
2018-01-16T20:11:55.644Z,2.30
2018-01-16T20:14:24.615Z,1.30
2018-01-16T20:16:53.689Z,1.40
2018-01-16T20:19:22.463Z,1.60
2018-01-16T20:21:51.051Z,0.90
2018-01-16T20:24:19.680Z,1.10
2018-01-16T20:26:48.139Z,1.00
2018-01-16T20:29:16.505Z,1.83
2018-01-16T20:31:44.914Z,1.30
2018-01-16T20:34:14.829Z,1.13
2018-01-16T20:36:43.222Z,1.10
2018-01-16T20:39:11.520Z,1.20
2018-01-16T20:41:40.565Z,1.77
2018-01-16T20:44:08.867Z,3.53
2018-01-16T20:46:37.927Z,3.70
2018-01-16T20:49:07.164Z,4.50
2018-01-16T20:51:36.270Z,3.73
2018-01-16T20:54:05.352Z,5.73
2018-01-16T20:56:33.648Z,6.10
2018-01-16T20:59:01.953Z,5.30
2018-01-16T21:01:30.468Z,7.80
2018-01-16T21:03:59.546Z,9.27
2018-01-16T21:06:27.889Z,9.57
2018-01-16T21:08:56.781Z,8.00
2018-01-16T21:11:25.095Z,7.90
2018-01-16T21:13:53.442Z,6.60
2018-01-16T21:16:22.495Z,6.50
2018-01-16T21:18:50.833Z,5.50
2018-01-16T21:21:19.176Z,6.40
2018-01-16T21:23:47.894Z,5.70
2018-01-16T21:26:16.640Z,6.10
2018-01-16T21:28:46.937Z,6.03
2018-01-16T21:31:15.943Z,5.80
2018-01-16T21:33:44.244Z,5.83
2018-01-16T21:36:12.624Z,6.47
2018-01-16T21:38:41.014Z,5.87
2018-01-16T21:41:09.312Z,4.50
2018-01-16T21:43:38.097Z,4.50
2018-01-16T21:46:06.554Z,3.77
2018-01-16T21:48:35.514Z,5.87
2018-01-16T21:51:03.903Z,4.57
2018-01-16T21:53:32.682Z,4.47
2018-01-16T21:56:02.526Z,3.67
2018-01-16T21:58:32.667Z,3.40
2018-01-16T22:01:01.212Z,2.77
2018-01-16T22:03:29.509Z,2.40
2018-01-16T22:05:58.524Z,3.00
2018-01-16T22:08:26.823Z,3.03
2018-01-16T22:10:55.124Z,3.10
2018-01-16T22:13:24.236Z,2.80
2018-01-16T22:15:52.535Z,2.03
2018-01-16T22:18:20.840Z,1.73
2018-01-16T22:20:49.747Z,1.73
2018-01-16T22:23:18.051Z,1.63
2018-01-16T22:25:46.481Z,1.77
2018-01-16T22:28:15.574Z,1.10
2018-01-16T22:30:43.872Z,1.70
2018-01-16T22:33:12.668Z,1.80
2018-01-16T22:35:43.287Z,1.13
2018-01-16T22:38:11.706Z,1.90
2018-01-16T22:40:40.268Z,1.60
2018-01-16T22:43:09.860Z,1.23
2018-01-16T22:45:38.683Z,1.90
2018-01-16T22:48:07.045Z,1.60
2018-01-16T22:50:36.690Z,1.93
2018-01-16T22:53:05.136Z,1.43
2018-01-16T22:55:34.411Z,2.20
2018-01-16T22:58:03.374Z,2.27
2018-01-16T23:00:32.598Z,1.83
2018-01-16T23:03:00.948Z,1.30
2018-01-16T23:05:29.748Z,2.10
2018-01-16T23:07:58.101Z,2.13
2018-01-16T23:10:26.408Z,2.17
2018-01-16T23:12:55.290Z,1.73
2018-01-16T23:15:23.626Z,2.27
2018-01-16T23:17:51.932Z,2.20
2018-01-16T23:20:20.227Z,1.80
2018-01-16T23:22:48.566Z,2.50
2018-01-16T23:25:16.909Z,3.10
2018-01-16T23:27:45.211Z,3.20
2018-01-16T23:30:14.339Z,4.07
2018-01-16T23:32:42.856Z,3.20
2018-01-16T23:35:11.866Z,3.03
2018-01-16T23:37:40.984Z,2.90
2018-01-16T23:40:10.043Z,2.90
2018-01-16T23:42:38.344Z,2.87
2018-01-16T23:45:06.696Z,2.70
2018-01-16T23:47:34.996Z,3.03
2018-01-16T23:50:03.305Z,2.20
2018-01-16T23:52:31.675Z,2.30
2018-01-16T23:54:59.988Z,1.97
2018-01-16T23:57:28.472Z,1.43
2018-01-16T23:59:56.815Z,1.53
